Time;durP1;ratioP1;P1;durP2;ratioP2;P2;SDS_P1;SDS_P2;PMS_P1;PMS_P2;Temp;Humidity;BMP_temperature;BMP_pressure;BME280_temperature;BME280_humidity;BME280_pressure;Samples;Min_cycle;Max_cycle;Signal;HPM_P1;HPM_P2
2021/12/08 00:00:41;;;;;;;31.02;12.70;;;;;;;-1.42;75.85;99120.88;4976087;28;20117;-63
2021/12/08 00:03:17;;;;;;;30.63;12.95;;;;;;;-1.45;75.79;99114.94;4976012;28;20476;-63
2021/12/08 00:05:46;;;;;;;31.55;12.40;;;;;;;-1.54;75.68;99120.47;4975956;28;20473;-63
2021/12/08 00:08:22;;;;;;;;;;;;;;;-1.57;75.77;99120.34;4975991;28;20055;-63
2021/12/08 00:13:44;;;;;;;31.52;12.50;;;;;;;-1.60;76.00;99116.84;4975524;28;20110;-63
2021/12/08 00:16:16;;;;;;;28.60;11.48;;;;;;;-1.67;76.12;99122.41;4975829;28;20404;-63
2021/12/08 00:18:50;;;;;;;27.65;10.98;;;;;;;-1.69;76.38;99119.88;4975692;28;20461;-63
2021/12/08 00:21:25;;;;;;;32.50;12.43;;;;;;;-1.72;76.05;99122.25;4976020;28;20123;-63
2021/12/08 00:23:57;;;;;;;27.27;11.23;;;;;;;-1.93;76.03;99118.94;4975357;28;20049;-63
2021/12/08 00:26:30;;;;;;;32.60;11.75;;;;;;;-1.92;76.48;99122.28;4975130;28;20074;-62
2021/12/08 00:29:03;;;;;;;29.17;12.63;;;;;;;-1.92;76.36;99110.63;4975564;28;20547;-63
2021/12/08 00:31:35;;;;;;;31.33;12.48;;;;;;;-1.93;76.50;99123.94;4975232;28;20058;-63
2021/12/08 00:34:09;;;;;;;29.63;12.40;;;;;;;-1.94;76.52;99122.22;4975446;28;20098;-63
2021/12/08 00:36:44;;;;;;;30.25;12.52;;;;;;;-1.88;76.56;99132.47;4975486;28;20505;-63
2021/12/08 00:39:17;;;;;;;32.88;13.45;;;;;;;-1.70;76.67;99122.28;4975345;28;20043;-63
2021/12/08 00:41:46;;;;;;;25.25;10.77;;;;;;;-1.69;76.49;99114.00;4975381;28;20133;-62
2021/12/08 00:44:22;;;;;;;33.08;12.40;;;;;;;-1.74;76.55;99116.34;4974972;28;20046;-63
2021/12/08 00:46:51;;;;;;;38.88;12.80;;;;;;;-1.71;76.68;99118.97;4974999;28;20050;-62
2021/12/08 00:49:26;;;;;;;27.40;12.30;;;;;;;-1.70;76.28;99123.16;4974959;28;20058;-62
2021/12/08 00:51:55;;;;;;;29.73;12.32;;;;;;;-1.71;76.54;99116.47;4975552;28;20459;-62
2021/12/08 00:54:27;;;;;;;;;;;;;;;-1.65;76.36;99106.69;4975631;28;20446;-62
2021/12/08 00:56:57;;;;;;;30.15;11.85;;;;;;;-1.61;76.20;99100.16;4975161;28;20368;-63
2021/12/08 00:59:29;;;;;;;25.83;11.70;;;;;;;-1.61;76.75;99083.47;4975114;28;20047;-62
2021/12/08 01:02:25;;;;;;;35.65;13.50;;;;;;;-1.61;76.58;99070.97;4974782;28;20053;-63
2021/12/08 01:05:00;;;;;;;31.85;13.43;;;;;;;-1.62;76.39;99071.78;4974796;28;20055;-63
2021/12/08 01:07:35;;;;;;;33.00;12.95;;;;;;;-1.66;76.70;99084.97;4974817;28;20051;-64
2021/12/08 01:10:11;;;;;;;33.20;13.05;;;;;;;-1.69;76.26;99079.84;4973870;28;20077;-62
2021/12/08 01:13:10;;;;;;;24.30;10.98;;;;;;;-1.81;76.42;99084.41;4975442;28;20043;-62
2021/12/08 01:15:46;;;;;;;28.23;11.68;;;;;;;-1.82;76.66;99081.84;4974807;28;20054;-63
2021/12/08 01:18:16;;;;;;;25.58;11.02;;;;;;;-1.85;76.44;99056.72;4974957;28;20168;-62
2021/12/08 01:20:48;;;;;;;31.67;12.02;;;;;;;-1.75;76.27;99059.59;4974670;28;20070;-63
2021/12/08 01:23:21;;;;;;;35.80;13.18;;;;;;;-1.72;76.48;99059.72;4974606;28;20050;-62
2021/12/08 01:25:54;;;;;;;28.88;11.20;;;;;;;-1.73;76.84;99060.53;4973828;28;20051;-62
2021/12/08 01:28:26;;;;;;;33.60;12.65;;;;;;;-1.72;76.77;99064.72;4974921;28;20035;-64
2021/12/08 01:31:00;;;;;;;34.90;12.80;;;;;;;-1.62;76.38;99071.78;4974615;28;20042;-64
2021/12/08 01:33:35;;;;;;;37.55;12.98;;;;;;;-1.58;76.56;99076.09;4974577;28;20058;-65
2021/12/08 01:36:10;;;;;;;29.65;12.48;;;;;;;-1.58;76.21;99073.59;4974536;28;20098;-65
2021/12/08 01:38:43;;;;;;;33.30;12.63;;;;;;;-1.62;76.02;99076.78;4974481;28;20070;-65
2021/12/08 01:41:16;;;;;;;32.92;13.32;;;;;;;-1.67;76.37;99073.25;4974796;28;20050;-65
2021/12/08 01:46:34;;;;;;;25.42;11.43;;;;;;;-1.61;76.26;99068.47;4974367;28;20081;-65
2021/12/08 01:49:07;;;;;;;23.65;9.68;;;;;;;-1.62;76.24;99066.78;4974424;28;20050;-65
2021/12/08 01:51:42;;;;;;;25.83;9.80;;;;;;;-1.60;76.56;99065.19;4974422;28;20058;-63
2021/12/08 01:54:11;;;;;;;25.77;10.07;;;;;;;-1.67;76.26;99057.41;4976908;28;20046;-63
2021/12/08 01:56:44;;;;;;;27.15;10.05;;;;;;;-1.68;76.12;99061.53;4978026;28;20050;-63
2021/12/08 01:59:17;;;;;;;21.70;10.60;;;;;;;-1.69;75.79;99059.00;4977974;28;20043;-63
2021/12/08 02:01:49;;;;;;;19.55;8.70;;;;;;;-1.68;75.87;99056.53;4978018;28;20489;-64
2021/12/08 02:04:21;;;;;;;26.83;9.75;;;;;;;-1.67;76.09;99057.41;4977923;28;20077;-62
2021/12/08 02:06:52;;;;;;;23.77;9.70;;;;;;;-1.71;76.32;99056.44;4977866;28;20097;-64
2021/12/08 02:09:25;;;;;;;22.55;9.68;;;;;;;-1.73;75.82;99055.53;4978140;28;20069;-64
2021/12/08 02:11:56;;;;;;;25.45;9.88;;;;;;;-1.75;75.46;99039.59;4978053;28;20046;-64
2021/12/08 02:14:28;;;;;;;22.95;10.00;;;;;;;-1.84;75.60;99046.78;4977750;28;20197;-64
2021/12/08 02:16:58;;;;;;;22.88;9.13;;;;;;;-1.97;75.77;99051.25;4977945;28;20047;-62
2021/12/08 02:19:30;;;;;;;27.98;10.13;;;;;;;-1.96;75.75;99042.94;4977728;28;20047;-62
2021/12/08 02:22:01;;;;;;;24.02;9.02;;;;;;;-1.98;75.44;99045.41;4977613;28;20047;-63
2021/12/08 02:24:31;;;;;;;23.73;9.13;;;;;;;-2.00;75.61;99046.13;4977138;28;20062;-62
2021/12/08 02:27:00;;;;;;;23.65;10.13;;;;;;;-2.02;75.45;99043.59;4977501;28;20142;-62
2021/12/08 02:29:38;;;;;;;;;;;;;;;-1.99;75.26;99053.69;4977886;28;20043;-63
2021/12/08 02:32:27;;;;;;;22.73;8.02;;;;;;;-1.97;75.33;99057.13;4977749;28;19922;-62
2021/12/08 02:48:38;;;;;;;18.38;8.40;;;;;;;-2.48;75.32;99050.94;4977199;28;20481;-62
2021/12/08 02:51:11;;;;;;;27.15;8.88;;;;;;;-2.63;75.48;99044.44;4977075;28;20089;-62
2021/12/08 02:53:45;;;;;;;21.65;7.25;;;;;;;-2.58;75.51;99062.97;4976205;28;20133;-63
2021/12/08 02:56:15;;;;;;;23.58;9.02;;;;;;;-2.75;75.55;99060.66;4976960;28;20130;-62
2021/12/08 02:58:49;;;;;;;22.00;9.35;;;;;;;-2.61;75.48;99061.22;4976899;28;20047;-62
2021/12/08 03:01:22;;;;;;;23.20;8.93;;;;;;;-2.59;76.04;99061.28;4976069;28;20070;-63
2021/12/08 03:03:54;;;;;;;21.58;8.52;;;;;;;-2.58;75.83;99048.00;4976094;28;20054;-63
2021/12/08 03:06:27;;;;;;;22.50;8.38;;;;;;;-2.52;75.43;99053.25;4976819;28;20210;-61
2021/12/08 03:09:01;;;;;;;22.30;8.23;;;;;;;-2.52;75.69;99043.25;4977136;28;20042;-62
2021/12/08 03:11:34;;;;;;;19.92;7.70;;;;;;;-2.48;75.51;99032.59;4976759;28;20097;-61
2021/12/08 03:14:10;;;;;;;31.15;10.70;;;;;;;-2.60;75.68;99039.59;4976726;28;20051;-63
2021/12/08 03:16:45;;;;;;;35.72;12.55;;;;;;;-2.68;75.61;99045.91;4976605;28;20051;-63
2021/12/08 03:19:21;;;;;;;35.90;12.07;;;;;;;-2.75;76.46;99040.69;4976831;28;20481;-62
2021/12/08 03:21:54;;;;;;;37.47;12.15;;;;;;;-2.71;77.01;99032.50;4976561;28;20045;-63
2021/12/08 03:24:31;;;;;;;35.22;11.90;;;;;;;-2.52;76.96;99033.28;4976416;28;20074;-64
2021/12/08 03:27:09;;;;;;;34.45;13.40;;;;;;;-2.65;76.31;99028.56;4937944;29;20052;-63
2021/12/08 03:29:49;;;;;;;35.22;12.02;;;;;;;-2.65;77.09;99026.94;4937947;29;20051;-62
2021/12/08 03:32:28;;;;;;;31.70;11.02;;;;;;;-2.58;76.32;99023.03;4937905;29;20063;-63
2021/12/08 03:35:01;;;;;;;30.23;12.93;;;;;;;-2.49;76.31;99023.38;4937869;29;20063;-61
2021/12/08 03:37:36;;;;;;;27.63;11.27;;;;;;;-2.57;76.23;99024.75;4937743;29;20064;-62
2021/12/08 03:40:13;;;;;;;26.88;10.30;;;;;;;-2.81;76.02;99012.97;4937721;29;20111;-61
2021/12/08 03:42:48;;;;;;;28.45;10.57;;;;;;;-2.93;76.32;99014.94;4937721;29;20106;-63
2021/12/08 03:45:23;;;;;;;28.52;10.50;;;;;;;-2.96;76.18;99024.84;4937949;29;20549;-63
2021/12/08 03:48:01;;;;;;;29.73;10.35;;;;;;;-2.84;76.53;99029.47;4937856;29;20110;-63
2021/12/08 03:50:36;;;;;;;29.60;10.70;;;;;;;-2.86;76.35;99026.06;4937526;29;20051;-62
2021/12/08 03:53:07;;;;;;;25.42;11.43;;;;;;;-2.81;76.49;99029.59;4469301;23;20086;-63
2021/12/08 03:55:42;;;;;;;37.30;11.50;;;;;;;-2.77;75.81;99022.28;4975945;28;20050;-64
2021/12/08 03:58:15;;;;;;;28.92;10.73;;;;;;;-2.83;76.30;99017.03;4976197;28;20067;-64
2021/12/08 04:00:50;;;;;;;25.70;11.00;;;;;;;-2.85;75.79;99027.75;4976076;28;20535;-65
2021/12/08 04:03:25;;;;;;;25.90;10.70;;;;;;;-2.77;76.54;99022.28;4976127;28;20098;-65
2021/12/08 04:06:01;;;;;;;27.33;10.45;;;;;;;-2.83;75.86;99016.19;4975781;28;20054;-64
2021/12/08 04:08:41;;;;;;;20.83;9.50;;;;;;;-2.80;76.39;99022.16;4975677;28;20111;-64
2021/12/08 04:11:15;;;;;;;18.92;8.60;;;;;;;-2.78;75.91;99025.56;4975671;28;20054;-64
2021/12/08 04:13:50;;;;;;;19.50;8.23;;;;;;;-2.82;76.03;99018.75;4975607;28;20054;-64
2021/12/08 04:16:26;;;;;;;24.83;9.00;;;;;;;-2.86;76.32;99016.94;4975499;28;20113;-63
2021/12/08 04:18:59;;;;;;;21.30;8.32;;;;;;;-2.72;75.58;99010.84;4975417;28;20149;-65
2021/12/08 04:21:32;;;;;;;18.90;7.85;;;;;;;-2.79;75.61;99013.91;4975809;28;20125;-65
2021/12/08 04:24:06;;;;;;;27.70;8.75;;;;;;;-2.87;76.09;99007.72;4974246;28;20046;-64
2021/12/08 04:26:44;;;;;;;22.35;8.07;;;;;;;-2.84;76.16;99010.34;4975430;28;20050;-64
2021/12/08 04:29:15;;;;;;;16.30;6.17;;;;;;;-2.94;75.44;99008.28;4975321;28;20134;-66
2021/12/08 04:31:45;;;;;;;25.40;9.23;;;;;;;-3.01;75.84;99010.44;4974329;28;20272;-67
2021/12/08 04:34:25;;;;;;;16.10;7.80;;;;;;;-3.02;75.59;98994.63;4975870;28;20058;-66
2021/12/08 04:37:03;;;;;;;19.15;7.47;;;;;;;-2.98;75.37;98991.47;4975262;28;20055;-66
2021/12/08 04:39:46;;;;;;;21.55;8.32;;;;;;;-3.02;75.09;98979.66;4975174;28;20489;-64
2021/12/08 04:42:26;;;;;;;19.58;8.55;;;;;;;-3.09;75.25;98982.69;4975134;28;20047;-66
2021/12/08 04:45:07;;;;;;;21.80;8.70;;;;;;;-3.16;75.01;98988.22;4975092;28;20051;-66
2021/12/08 04:47:54;;;;;;;24.63;8.38;;;;;;;-3.18;75.38;98991.44;4973889;28;20070;-64
2021/12/08 04:50:48;;;;;;;18.45;8.07;;;;;;;-3.21;75.25;98992.16;4975261;28;20496;-65
2021/12/08 04:53:37;;;;;;;19.77;8.23;;;;;;;-3.20;74.53;98988.88;4974071;28;20061;-64
2021/12/08 05:01:57;;;;;;;29.17;10.13;;;;;;;-3.41;74.26;98993.81;4974823;28;20129;-64
2021/12/08 05:04:49;;;;;;;26.80;9.38;;;;;;;-3.35;74.79;98997.34;4974796;28;20093;-64
2021/12/08 05:07:33;;;;;;;28.33;10.30;;;;;;;-3.40;74.66;99007.13;4974771;28;20046;-63
2021/12/08 05:10:14;;;;;;;23.70;9.77;;;;;;;-3.49;74.72;99014.22;4975054;28;20493;-64
2021/12/08 05:12:49;;;;;;;24.08;8.57;;;;;;;-3.44;75.13;99017.78;4974806;28;20050;-65
2021/12/08 05:15:27;;;;;;;17.10;7.18;;;;;;;-3.47;75.45;99007.66;4975034;28;20515;-67
2021/12/08 05:18:04;;;;;;;12.82;5.55;;;;;;;-3.38;74.86;99013.88;4973795;28;20381;-66
2021/12/08 05:20:42;;;;;;;14.02;5.30;;;;;;;-3.45;75.08;99011.06;4974885;28;20038;-64
2021/12/08 05:23:19;;;;;;;12.02;5.13;;;;;;;-3.49;75.17;99017.56;4974702;28;20050;-66
2021/12/08 05:25:53;;;;;;;15.98;6.43;;;;;;;-3.48;74.94;99015.94;4974675;28;20051;-66
2021/12/08 05:28:29;;;;;;;16.42;5.80;;;;;;;-3.42;75.48;99016.19;4977872;28;20082;-66
2021/12/08 05:31:06;;;;;;;16.05;5.70;;;;;;;-3.33;75.22;99021.56;4978830;28;20046;-64
2021/12/08 05:33:40;;;;;;;14.07;5.50;;;;;;;-3.31;75.49;99019.97;4978572;28;20138;-64
2021/12/08 05:36:13;;;;;;;14.48;6.20;;;;;;;-3.29;75.69;99008.47;4978537;28;20098;-64
2021/12/08 05:38:47;;;;;;;17.17;6.90;;;;;;;-3.35;75.35;99008.19;4978439;28;20133;-64
2021/12/08 05:41:24;;;;;;;20.65;7.53;;;;;;;-3.23;75.09;99007.84;4978294;28;20106;-64
2021/12/08 05:43:58;;;;;;;17.73;7.35;;;;;;;-3.25;75.35;99015.28;4978421;28;20058;-64
2021/12/08 05:46:31;;;;;;;13.35;6.35;;;;;;;-3.13;75.40;99010.81;4978640;28;20043;-64
2021/12/08 05:49:04;;;;;;;14.02;6.10;;;;;;;-3.21;75.26;99001.28;4978295;28;20061;-65
2021/12/08 05:51:37;;;;;;;14.48;5.32;;;;;;;-3.23;74.70;99013.69;4978378;28;20515;-67
2021/12/08 05:54:13;;;;;;;17.45;7.03;;;;;;;-3.30;75.10;99016.72;4977504;28;20079;-66
2021/12/08 05:56:44;;;;;;;29.20;8.95;;;;;;;-3.39;75.25;99011.34;4978768;28;20046;-65
2021/12/08 05:59:16;;;;;;;31.17;9.02;;;;;;;-3.23;75.55;99018.69;4978958;28;20058;-67
2021/12/08 06:01:51;;;;;;;22.02;8.82;;;;;;;-3.21;75.14;99022.09;4978146;28;20066;-65
2021/12/08 06:04:24;;;;;;;19.58;7.90;;;;;;;-3.34;75.30;99024.88;4978348;28;20046;-65
2021/12/08 06:06:53;;;;;;;23.55;8.07;;;;;;;-3.36;75.03;99026.44;4978297;28;20524;-64
2021/12/08 06:09:24;;;;;;;26.33;9.60;;;;;;;-3.42;74.78;99031.16;4977849;28;20098;-64
2021/12/08 06:11:56;;;;;;;26.48;9.30;;;;;;;-3.45;74.55;99036.00;4977790;28;20449;-64
2021/12/08 06:14:32;;;;;;;21.45;8.60;;;;;;;-3.55;74.68;99028.94;4978122;28;20058;-65
2021/12/08 06:17:06;;;;;;;16.75;9.00;;;;;;;-3.52;74.41;99036.53;4977668;28;20134;-64
2021/12/08 06:19:37;;;;;;;20.10;7.88;;;;;;;-3.61;74.38;99038.63;4977718;28;20051;-64
2021/12/08 06:22:06;;;;;;;27.77;8.77;;;;;;;-3.58;74.51;99023.81;4977891;28;20448;-65
2021/12/08 06:24:36;;;;;;;21.45;7.88;;;;;;;-3.51;74.72;99023.28;4978711;28;20444;-64
2021/12/08 06:27:06;;;;;;;20.98;8.95;;;;;;;-3.55;74.46;99023.94;4977706;28;20433;-65
2021/12/08 06:29:36;;;;;;;21.83;8.70;;;;;;;-3.58;74.77;99013.84;4977380;28;20043;-64
2021/12/08 06:32:09;;;;;;;24.27;10.45;;;;;;;-3.67;73.97;99018.41;4977804;28;20047;-66
2021/12/08 06:34:40;;;;;;;19.40;8.27;;;;;;;-3.65;74.35;99017.72;4977401;28;20051;-65
2021/12/08 06:37:13;;;;;;;24.63;8.95;;;;;;;-3.60;74.22;99025.38;4977488;28;20042;-65
2021/12/08 06:39:51;;;;;;;24.02;9.10;;;;;;;-3.69;74.50;99019.97;4977074;28;20492;-64
2021/12/08 06:42:28;;;;;;;19.85;8.32;;;;;;;-3.64;74.90;99003.56;4977197;28;20042;-65
2021/12/08 06:44:57;;;;;;;21.85;8.73;;;;;;;-3.69;74.92;99017.47;4977220;28;20081;-64
2021/12/08 06:47:29;;;;;;;;;;;;;;;-3.71;75.05;99021.53;4977141;28;20050;-65
2021/12/08 06:50:06;;;;;;;23.65;8.60;;;;;;;-3.76;74.02;99022.97;4977550;28;20375;-65
2021/12/08 06:52:39;;;;;;;22.85;8.35;;;;;;;-3.71;74.85;99026.53;4976844;28;20047;-66
2021/12/08 06:55:12;;;;;;;20.60;8.68;;;;;;;-3.72;74.78;99024.84;4977065;28;20058;-66
2021/12/08 06:57:47;;;;;;;24.85;8.70;;;;;;;-3.66;74.57;99020.13;4977421;28;20133;-65
2021/12/08 07:00:23;;;;;;;23.63;9.27;;;;;;;-3.49;74.89;99019.22;4975664;28;20129;-65
2021/12/08 07:03:06;;;;;;;25.80;10.13;;;;;;;-3.15;74.79;99017.38;4976897;28;20062;-66
2021/12/08 07:08:33;;;;;;;22.77;9.02;;;;;;;-2.55;74.75;99006.53;5132287;27;20900;-65
2021/12/08 07:11:03;;;;;;;19.17;8.25;;;;;;;-2.33;74.54;99005.72;5132100;27;20050;-65
2021/12/08 07:13:36;;;;;;;25.60;8.98;;;;;;;-2.19;74.56;99007.09;5132269;27;20110;-66
2021/12/08 07:16:27;;;;;;;20.63;10.07;;;;;;;-2.06;73.79;99006.75;5133718;27;20028;-65
2021/12/08 07:19:03;;;;;;;23.27;9.18;;;;;;;-1.94;73.68;99009.72;5132093;27;20077;-64
2021/12/08 07:21:39;;;;;;;24.35;9.55;;;;;;;-1.94;73.85;99012.22;5131673;27;20488;-65
2021/12/08 07:24:14;;;;;;;21.00;10.38;;;;;;;-1.88;73.80;99012.47;5131743;27;20044;-66
2021/12/08 07:26:46;;;;;;;24.70;10.95;;;;;;;-1.73;74.04;99012.16;5131814;27;20039;-65
2021/12/08 07:29:23;;;;;;;27.17;10.73;;;;;;;-1.77;73.36;99021.19;5131638;27;20055;-65
2021/12/08 07:31:57;;;;;;;27.20;11.48;;;;;;;-1.69;73.88;99027.34;5131625;27;20051;-64
2021/12/08 07:34:27;;;;;;;30.27;13.35;;;;;;;-1.40;73.76;99029.25;5131471;27;20047;-65
2021/12/08 07:37:01;;;;;;;28.20;13.80;;;;;;;-1.36;73.53;99031.03;5132009;27;20130;-64
2021/12/08 07:39:43;;;;;;;33.45;13.57;;;;;;;-1.31;73.97;99027.84;5131385;27;20051;-64
2021/12/08 07:42:18;;;;;;;30.92;12.30;;;;;;;-1.15;73.90;99025.09;5131366;27;20054;-65
2021/12/08 07:44:55;;;;;;;23.58;12.80;;;;;;;-1.00;73.82;99020.59;5131556;27;20048;-64
2021/12/08 07:47:26;;;;;;;26.77;11.77;;;;;;;-0.93;73.74;99032.50;5130965;27;20496;-65
2021/12/08 07:50:00;;;;;;;29.95;11.77;;;;;;;-0.97;73.72;99021.56;5131491;27;20070;-64
2021/12/08 07:52:33;;;;;;;29.27;13.20;;;;;;;-0.87;73.74;99027.72;5131354;27;20459;-66
2021/12/08 07:55:08;;;;;;;30.23;12.50;;;;;;;-0.69;73.83;99020.81;5131359;27;20488;-65
2021/12/08 07:57:37;;;;;;;26.20;12.60;;;;;;;-0.74;73.68;99024.81;5131068;27;20039;-64
2021/12/08 08:00:12;;;;;;;33.50;14.10;;;;;;;-0.59;73.56;99012.78;5130937;27;20503;-65
2021/12/08 08:02:43;;;;;;;24.95;11.30;;;;;;;-0.48;73.61;99020.66;5131124;27;20051;-66
2021/12/08 08:05:16;;;;;;;26.85;11.63;;;;;;;-0.26;73.42;99010.47;5130772;27;20074;-65
2021/12/08 08:07:47;;;;;;;23.58;10.07;;;;;;;-0.17;72.97;99031.69;5130491;27;20399;-66
2021/12/08 08:10:18;;;;;;;20.20;10.15;;;;;;;0.00;73.19;99015.50;5130804;27;20039;-66
2021/12/08 08:12:51;;;;;;;23.88;9.88;;;;;;;0.22;72.99;99008.59;5130979;27;20051;-66
2021/12/08 08:15:23;;;;;;;28.83;10.93;;;;;;;0.22;72.77;99006.06;5130961;27;20366;-67
2021/12/08 08:17:55;;;;;;;23.40;9.93;;;;;;;0.24;72.63;99014.53;5128232;27;20492;-65
2021/12/08 08:20:28;;;;;;;22.13;9.18;;;;;;;0.33;72.71;99009.78;5116870;28;20043;-65
2021/12/08 08:23:00;;;;;;;25.55;10.30;;;;;;;0.46;72.94;99009.28;5116819;27;20039;-66
2021/12/08 08:25:34;;;;;;;23.40;9.88;;;;;;;0.51;72.72;99012.78;5116826;28;20048;-65
2021/12/08 08:28:04;;;;;;;18.35;7.35;;;;;;;0.59;72.20;99023.91;5116926;28;20519;-66
2021/12/08 08:30:36;;;;;;;20.05;9.27;;;;;;;0.68;71.99;99019.13;5116675;28;20054;-65
2021/12/08 08:33:06;;;;;;;18.50;8.48;;;;;;;0.79;72.02;99025.31;5116861;28;20043;-65
2021/12/08 08:35:40;;;;;;;20.42;9.35;;;;;;;0.76;71.38;99022.69;5117488;27;20043;-63
2021/12/08 08:38:12;;;;;;;21.80;9.02;;;;;;;0.76;71.60;99029.38;5116796;28;20043;-66
2021/12/08 08:40:47;;;;;;;19.15;8.82;;;;;;;0.76;71.51;99015.16;5116798;28;20043;-66
2021/12/08 08:43:17;;;;;;;23.63;9.25;;;;;;;0.75;71.70;99015.09;5116190;28;20378;-66
2021/12/08 08:45:52;;;;;;;20.88;8.63;;;;;;;0.85;71.63;99002.84;5116168;28;20051;-64
2021/12/08 08:48:26;;;;;;;22.13;9.35;;;;;;;0.85;71.51;99002.84;5116108;28;20064;-66
2021/12/08 08:50:58;;;;;;;17.08;7.85;;;;;;;0.91;71.39;99005.50;5116026;27;20056;-64
2021/12/08 08:53:31;;;;;;;16.83;8.82;;;;;;;1.00;71.28;98998.25;5116076;28;20126;-65
2021/12/08 08:56:07;;;;;;;18.20;8.40;;;;;;;1.16;71.51;99000.31;5116270;28;20485;-65
2021/12/08 08:58:38;;;;;;;18.55;7.72;;;;;;;1.22;71.25;98997.13;5115987;27;20427;-66
2021/12/08 09:01:15;;;;;;;18.13;8.70;;;;;;;1.39;70.87;98995.88;5115948;28;20047;-66
2021/12/08 09:03:49;;;;;;;20.50;9.23;;;;;;;1.41;70.69;98990.88;5115231;28;20418;-66
2021/12/08 09:06:21;;;;;;;23.10;8.70;;;;;;;1.50;70.58;99002.00;5113362;28;20074;-66
2021/12/08 09:08:50;;;;;;;19.98;8.13;;;;;;;1.61;70.44;98980.47;5115596;28;20052;-66
2021/12/08 09:11:25;;;;;;;15.65;7.80;;;;;;;1.44;70.67;98985.94;5115859;28;20069;-65
2021/12/08 09:14:00;;;;;;;19.60;8.02;;;;;;;1.56;70.29;98987.03;5114836;28;20048;-65
2021/12/08 09:16:32;;;;;;;19.35;9.50;;;;;;;1.59;70.45;98986.25;5115691;28;20511;-65
2021/12/08 09:19:06;;;;;;;19.92;8.35;;;;;;;1.64;70.92;98984.72;5115845;28;20044;-65
2021/12/08 09:21:39;;;;;;;18.35;9.32;;;;;;;1.70;70.14;98977.31;5115767;28;20043;-65
2021/12/08 09:24:14;;;;;;;20.77;8.07;;;;;;;1.64;70.51;98979.69;5115904;28;20054;-65
2021/12/08 09:26:49;;;;;;;20.05;8.98;;;;;;;1.64;70.47;98979.69;5115526;28;20100;-65
2021/12/08 09:29:22;;;;;;;21.42;10.15;;;;;;;1.67;70.47;98969.69;5115337;28;20081;-65
2021/12/08 09:31:56;;;;;;;25.35;10.30;;;;;;;1.68;70.47;98966.38;5114986;28;20043;-65
2021/12/08 09:34:28;;;;;;;21.55;9.15;;;;;;;1.84;70.95;98969.28;5115957;28;20388;-66
2021/12/08 09:37:00;;;;;;;25.33;9.52;;;;;;;1.98;69.88;98962.00;5115461;28;20058;-65
2021/12/08 09:39:34;;;;;;;23.48;10.57;;;;;;;1.94;70.23;98960.25;5115447;28;20059;-65
2021/12/08 09:42:10;;;;;;;20.02;8.50;;;;;;;1.93;69.63;98961.06;5115375;28;20516;-65
2021/12/08 09:44:42;;;;;;;23.00;9.02;;;;;;;1.82;69.79;98942.38;5115615;28;20082;-65
2021/12/08 09:47:12;;;;;;;24.42;10.45;;;;;;;1.80;69.75;98947.38;5115540;28;20097;-66
2021/12/08 09:49:42;;;;;;;19.35;8.27;;;;;;;1.90;69.77;98940.88;5115560;27;20100;-66
2021/12/08 09:52:11;;;;;;;20.40;8.60;;;;;;;2.08;70.38;98938.75;5115002;28;20046;-65
2021/12/08 09:54:41;;;;;;;23.38;8.93;;;;;;;2.31;70.46;98937.53;5115311;28;20101;-64
2021/12/08 09:57:14;;;;;;;19.73;8.30;;;;;;;2.51;68.91;98920.31;5115030;28;20040;-64
2021/12/08 09:59:47;;;;;;;18.27;8.70;;;;;;;2.59;69.29;98927.16;5114871;28;20067;-64
2021/12/08 10:02:26;;;;;;;19.95;9.20;;;;;;;2.66;68.71;98921.41;5115193;28;20549;-65
2021/12/08 10:04:57;;;;;;;19.38;9.55;;;;;;;2.60;68.90;98913.75;5113638;28;20043;-65
2021/12/08 10:07:27;;;;;;;21.92;8.52;;;;;;;2.68;68.35;98904.69;5114941;28;20052;-66
2021/12/08 10:09:56;;;;;;;20.92;9.18;;;;;;;2.68;67.98;98898.78;5114719;28;20048;-63
2021/12/08 10:12:27;;;;;;;19.52;9.40;;;;;;;2.61;68.33;98902.88;5114564;28;20093;-64
2021/12/08 10:14:57;;;;;;;18.27;8.73;;;;;;;2.88;68.73;98901.66;5114964;28;20561;-63
2021/12/08 10:17:27;;;;;;;23.02;10.15;;;;;;;2.92;68.70;98896.69;5114819;28;20131;-64
2021/12/08 10:20:11;;;;;;;23.52;11.60;;;;;;;3.32;68.49;98880.53;5114338;28;20042;-64
2021/12/08 10:22:42;;;;;;;27.33;12.63;;;;;;;3.71;67.60;98878.56;5114691;28;20390;-64
2021/12/08 10:25:16;;;;;;;28.52;13.20;;;;;;;3.73;67.39;98873.53;5114411;28;20077;-64
2021/12/08 10:28:06;;;;;;;20.45;10.10;;;;;;;3.67;66.79;98873.47;5114411;28;20073;-63
2021/12/08 10:30:41;;;;;;;24.08;11.18;;;;;;;3.65;66.78;98859.94;5114263;28;20078;-64
2021/12/08 10:36:44;;;;;;;19.05;9.68;;;;;;;4.15;66.25;98858.06;5109368;28;20047;-63
2021/12/08 10:39:17;;;;;;;22.20;9.65;;;;;;;4.41;65.82;98855.00;5114358;28;20435;-64
2021/12/08 10:41:53;;;;;;;21.88;9.55;;;;;;;4.23;65.23;98838.78;5114115;28;20044;-63
2021/12/08 10:44:49;;;;;;;20.67;9.50;;;;;;;4.28;65.06;98849.78;5113942;28;20115;-65
2021/12/08 10:47:28;;;;;;;17.52;8.73;;;;;;;4.49;65.29;98837.38;5114133;28;20056;-64
2021/12/08 10:55:28;;;;;;;19.50;9.82;;;;;;;4.95;64.17;98829.38;5113581;28;20040;-64
2021/12/08 10:57:57;;;;;;;18.75;9.02;;;;;;;4.95;63.68;98816.72;5113186;28;20039;-64
2021/12/08 11:00:29;;;;;;;21.00;9.63;;;;;;;5.05;63.74;98822.69;5113391;28;20097;-64
2021/12/08 11:03:08;;;;;;;23.38;9.18;;;;;;;4.96;63.31;98820.97;5114110;28;20443;-64
2021/12/08 11:05:44;;;;;;;18.92;8.90;;;;;;;5.19;63.96;98826.16;5113881;28;20046;-65
2021/12/08 11:08:29;;;;;;;21.08;9.38;;;;;;;5.26;62.68;98823.69;5113592;28;20052;-64
2021/12/08 11:11:01;;;;;;;18.27;8.43;;;;;;;5.01;62.52;98818.47;5113837;28;20048;-64
2021/12/08 11:13:32;;;;;;;21.20;8.90;;;;;;;5.13;62.75;98811.81;5113913;28;20050;-65
2021/12/08 11:16:07;;;;;;;19.70;9.32;;;;;;;5.18;62.42;98817.72;5113741;28;20509;-64
2021/12/08 11:18:39;;;;;;;22.77;9.82;;;;;;;5.48;62.19;98809.47;5113836;28;20077;-64
2021/12/08 11:21:16;;;;;;;17.50;9.07;;;;;;;5.63;62.39;98813.78;5113778;28;20039;-64
2021/12/08 11:24:11;;;;;;;25.83;9.25;;;;;;;6.03;62.12;98810.59;5113645;28;20508;-64
2021/12/08 11:26:43;;;;;;;16.77;8.80;;;;;;;6.17;61.43;98803.06;5113753;28;20149;-64
2021/12/08 11:29:17;;;;;;;22.48;10.07;;;;;;;6.18;61.32;98807.25;5113519;28;20126;-64
2021/12/08 11:31:48;;;;;;;20.83;9.48;;;;;;;6.29;61.53;98798.84;5113663;28;20143;-64
2021/12/08 11:34:22;;;;;;;21.98;9.32;;;;;;;6.30;61.02;98797.16;5113628;28;20509;-64
2021/12/08 11:36:53;;;;;;;19.63;9.27;;;;;;;6.31;60.76;98791.25;5114131;28;20431;-64
2021/12/08 11:39:28;;;;;;;18.13;8.35;;;;;;;6.53;60.89;98788.72;5113726;28;20135;-64
2021/12/08 11:42:00;;;;;;;19.15;8.65;;;;;;;6.33;60.40;98785.34;5113527;28;20131;-64
2021/12/08 11:44:31;;;;;;;18.90;8.90;;;;;;;6.26;60.24;98783.66;5113539;28;20048;-64
2021/12/08 11:47:05;;;;;;;20.17;8.38;;;;;;;6.32;60.25;98781.09;5112656;28;20054;-65
2021/12/08 11:49:40;;;;;;;17.90;8.93;;;;;;;6.50;59.73;98782.84;5113644;28;20040;-64
2021/12/08 11:52:13;;;;;;;21.70;9.07;;;;;;;6.20;59.75;98788.69;5113854;28;20043;-64
2021/12/08 11:54:49;;;;;;;17.65;8.13;;;;;;;6.22;59.48;98789.53;5116299;28;20055;-64
2021/12/08 11:57:20;;;;;;;19.40;9.02;;;;;;;6.27;59.38;98790.38;5117328;28;20143;-64
2021/12/08 12:00:04;;;;;;;20.73;9.25;;;;;;;6.02;59.86;98788.66;5117360;28;20124;-64
2021/12/08 12:02:40;;;;;;;20.77;8.93;;;;;;;6.11;59.16;98781.06;5117096;28;20044;-64
2021/12/08 12:05:13;;;;;;;20.23;9.52;;;;;;;6.15;59.39;98785.28;5117573;28;20028;-64
2021/12/08 12:07:43;;;;;;;19.08;8.73;;;;;;;6.19;59.07;98781.91;5116971;28;20058;-65
2021/12/08 12:10:14;;;;;;;19.20;10.07;;;;;;;6.79;58.14;98760.84;5116668;28;20044;-64
2021/12/08 12:12:43;;;;;;;20.40;8.48;;;;;;;7.25;57.54;98766.69;5117294;28;20458;-64
2021/12/08 12:15:15;;;;;;;16.60;7.95;;;;;;;7.75;56.74;98759.75;5116783;28;20047;-65
2021/12/08 12:17:44;;;;;;;20.38;9.63;;;;;;;8.08;56.03;98764.69;5116812;28;20047;-64
2021/12/08 12:20:21;;;;;;;17.05;8.45;;;;;;;8.44;54.59;98763.66;5116612;28;20061;-64
2021/12/08 12:23:06;;;;;;;16.88;7.70;;;;;;;8.59;53.24;98762.69;5116673;28;20060;-65
2021/12/08 12:25:47;;;;;;;17.52;8.57;;;;;;;8.27;52.63;98754.44;5116678;28;20492;-65
2021/12/08 12:28:32;;;;;;;16.65;9.00;;;;;;;8.08;53.47;98748.59;5116414;28;20047;-65
2021/12/08 12:31:11;;;;;;;19.10;8.40;;;;;;;8.08;53.58;98744.38;5116452;28;20066;-65
2021/12/08 12:33:42;;;;;;;12.93;6.60;;;;;;;8.19;53.26;98745.97;5116348;28;20150;-65
2021/12/08 12:36:22;;;;;;;17.88;9.20;;;;;;;7.97;52.87;98746.09;5116599;28;20272;-65